createdAt,value
2019-04-21T00:02:18.767Z,6.10
2019-04-21T00:07:37.774Z,5.90
2019-04-21T00:12:40.658Z,5.80
2019-04-21T00:17:34.727Z,5.70
2019-04-21T00:22:50.961Z,5.60
2019-04-21T00:28:03.173Z,5.50
2019-04-21T00:32:59.965Z,5.50
2019-04-21T00:38:21.362Z,5.40
2019-04-21T00:43:24.148Z,5.40
2019-04-21T00:48:36.363Z,5.20
2019-04-21T00:53:45.362Z,5.20
2019-04-21T00:58:46.272Z,5.20
2019-04-21T01:03:57.867Z,5.10
2019-04-21T01:08:59.006Z,5.00
2019-04-21T01:14:12.108Z,4.90
2019-04-21T01:19:14.325Z,4.80
2019-04-21T01:24:07.726Z,4.70
2019-04-21T01:29:20.867Z,4.70
2019-04-21T01:34:37.342Z,4.70
2019-04-21T01:39:41.170Z,4.70
2019-04-21T01:44:46.175Z,4.60
2019-04-21T01:49:43.057Z,4.50
2019-04-21T01:55:12.646Z,4.50
2019-04-21T02:00:12.243Z,4.50
2019-04-21T02:05:32.688Z,4.40
2019-04-21T02:10:40.054Z,4.40
2019-04-21T02:15:45.226Z,4.30
2019-04-21T02:20:40.167Z,4.20
2019-04-21T02:26:01.889Z,4.00
2019-04-21T02:36:32.795Z,4.00
2019-04-21T02:41:23.095Z,4.00
2019-04-21T02:51:44.297Z,3.80
2019-04-21T02:56:48.173Z,3.80
2019-04-21T03:02:11.100Z,3.80
2019-04-21T03:12:17.928Z,3.70
2019-04-21T03:22:31.619Z,3.50
2019-04-21T03:27:51.216Z,3.40
2019-04-21T03:33:23.504Z,3.40
2019-04-21T03:38:00.178Z,3.50
2019-04-21T03:43:04.926Z,3.50
2019-04-21T03:48:11.513Z,3.40
2019-04-21T03:53:22.680Z,3.40
2019-04-21T03:58:35.131Z,3.40
2019-04-21T04:09:03.144Z,3.30
2019-04-21T04:14:04.027Z,3.40
2019-04-21T04:19:01.212Z,3.40
2019-04-21T04:24:07.191Z,3.50
2019-04-21T04:34:24.829Z,3.50
2019-04-21T04:39:42.787Z,3.50
2019-04-21T04:49:48.045Z,3.80
2019-04-21T04:54:55.808Z,4.00
2019-04-21T05:00:07.384Z,4.10
2019-04-21T05:05:07.089Z,4.20
2019-04-21T05:10:07.395Z,4.40
2019-04-21T05:20:26.145Z,4.90
2019-04-21T05:25:13.478Z,5.20
2019-04-21T05:30:33.852Z,5.40
2019-04-21T05:35:47.876Z,5.70
2019-04-21T05:40:45.375Z,6.00
2019-04-21T05:46:05.432Z,6.30
2019-04-21T05:51:03.638Z,6.70
2019-04-21T05:56:17.325Z,7.10
2019-04-21T06:01:31.514Z,7.50
2019-04-21T06:11:36.778Z,8.40
2019-04-21T06:21:44.901Z,9.30
2019-04-21T06:32:29.587Z,9.90
2019-04-21T06:37:22.474Z,10.20
2019-04-21T06:42:13.260Z,10.40
2019-04-21T06:47:32.544Z,10.80
2019-04-21T07:02:52.132Z,11.90
2019-04-21T07:08:06.479Z,12.30
2019-04-21T07:12:56.124Z,12.60
2019-04-21T07:18:09.308Z,13.00
2019-04-21T07:23:10.496Z,13.30
2019-04-21T07:28:15.514Z,13.60
2019-04-21T07:33:41.710Z,13.90
2019-04-21T07:38:27.420Z,14.20
2019-04-21T07:43:24.656Z,14.70
2019-04-21T07:48:46.115Z,15.00
2019-04-21T07:53:59.904Z,15.20
2019-04-21T07:59:04.063Z,15.40
2019-04-21T08:04:16.512Z,15.80
2019-04-21T08:09:08.869Z,16.20
2019-04-21T08:14:19.205Z,16.20
2019-04-21T08:19:25.201Z,16.30
2019-04-21T08:24:28.525Z,16.80
2019-04-21T08:29:39.199Z,17.30
2019-04-21T08:34:43.249Z,17.30
2019-04-21T08:39:57.055Z,17.50
2019-04-21T08:44:55.807Z,17.90
2019-04-21T08:50:00.495Z,18.00
2019-04-21T08:55:25.329Z,18.10
2019-04-21T09:00:45.182Z,18.00
2019-04-21T09:05:45.560Z,18.00
2019-04-21T09:10:55.802Z,18.40
2019-04-21T09:15:52.396Z,18.60
2019-04-21T09:21:10.617Z,18.80
2019-04-21T09:26:05.191Z,19.10
2019-04-21T09:31:00.903Z,19.70
2019-04-21T09:36:07.529Z,19.70
2019-04-21T09:41:15.914Z,19.80
2019-04-21T09:46:16.947Z,20.00
2019-04-21T09:51:21.782Z,19.90
2019-04-21T09:56:35.892Z,20.00
2019-04-21T10:01:50.396Z,20.20
2019-04-21T10:06:39.661Z,20.30
2019-04-21T10:11:45.846Z,20.40
2019-04-21T10:16:53.927Z,20.50
2019-04-21T10:22:01.195Z,20.70
2019-04-21T10:27:07.293Z,21.00
2019-04-21T10:32:13.403Z,21.20
2019-04-21T10:37:18.827Z,20.90
2019-04-21T10:42:23.814Z,21.20
2019-04-21T10:47:29.335Z,20.90
2019-04-21T10:52:53.146Z,21.10
2019-04-21T10:58:18.335Z,21.00
2019-04-21T11:03:40.952Z,21.30
2019-04-21T11:08:50.320Z,21.70
2019-04-21T11:13:52.629Z,21.60
2019-04-21T11:18:57.958Z,21.50
2019-04-21T11:24:03.965Z,21.30
2019-04-21T11:29:08.817Z,21.50
2019-04-21T11:34:13.641Z,21.70
2019-04-21T11:39:31.560Z,21.80
2019-04-21T11:44:27.020Z,21.70
2019-04-21T11:49:32.576Z,21.80
2019-04-21T11:54:37.500Z,22.20
2019-04-21T11:59:43.776Z,22.10
2019-04-21T12:04:49.524Z,22.20
2019-04-21T12:09:55.406Z,22.00
2019-04-21T12:15:00.360Z,21.90
2019-04-21T12:20:08.753Z,22.30
2019-04-21T12:25:15.589Z,22.00
2019-04-21T12:30:21.763Z,22.60
2019-04-21T12:35:28.008Z,23.00
2019-04-21T12:40:32.996Z,23.30
2019-04-21T12:45:37.915Z,23.10
2019-04-21T12:50:43.726Z,22.00
2019-04-21T12:55:49.880Z,21.90
2019-04-21T13:00:54.974Z,21.10
2019-04-21T13:05:59.804Z,20.80
2019-04-21T13:11:04.642Z,21.50
2019-04-21T13:16:09.719Z,21.40
2019-04-21T13:21:14.596Z,21.80
2019-04-21T13:26:30.589Z,21.00
2019-04-21T13:31:26.608Z,20.80
2019-04-21T13:36:31.760Z,21.20
2019-04-21T13:41:53.266Z,21.90
2019-04-21T13:46:45.034Z,21.70
2019-04-21T13:51:50.165Z,21.60
2019-04-21T13:56:56.418Z,21.10
2019-04-21T14:02:02.693Z,21.90
2019-04-21T14:07:08.175Z,21.40
2019-04-21T14:12:13.741Z,21.50
2019-04-21T14:17:19.155Z,21.60
2019-04-21T14:22:26.399Z,21.60
2019-04-21T14:27:32.190Z,21.80
2019-04-21T14:32:37.990Z,22.00
2019-04-21T14:37:42.826Z,21.70
2019-04-21T14:42:47.868Z,21.60
2019-04-21T14:47:54.380Z,21.50
2019-04-21T14:53:13.740Z,21.20
2019-04-21T14:58:19.166Z,21.40
2019-04-21T15:03:25.679Z,21.00
2019-04-21T15:08:31.293Z,20.80
2019-04-21T15:13:37.629Z,21.10
2019-04-21T15:18:42.521Z,20.80
2019-04-21T15:23:48.455Z,21.00
2019-04-21T15:28:53.349Z,21.00
2019-04-21T15:33:59.094Z,21.00
2019-04-21T15:39:05.915Z,20.90
2019-04-21T15:44:12.393Z,20.90
2019-04-21T15:49:17.540Z,20.90
2019-04-21T15:54:22.690Z,20.50
2019-04-21T15:59:30.437Z,20.20
2019-04-21T16:04:36.806Z,20.00
2019-04-21T16:09:41.877Z,19.80
2019-04-21T16:14:46.965Z,19.60
2019-04-21T16:19:52.239Z,19.10
2019-04-21T16:24:58.964Z,18.90
2019-04-21T16:30:07.927Z,18.50
2019-04-21T16:35:14.948Z,18.40
2019-04-21T16:40:21.305Z,18.20
2019-04-21T16:45:26.248Z,18.00
2019-04-21T16:50:31.885Z,17.70
2019-04-21T16:55:39.283Z,17.60
2019-04-21T17:06:08.938Z,17.20
2019-04-21T17:11:19.546Z,16.90
2019-04-21T17:16:34.776Z,17.40
2019-04-21T17:16:48.251Z,16.70
2019-04-21T17:21:28.075Z,16.30
2019-04-21T17:26:37.200Z,16.10
2019-04-21T17:31:41.315Z,15.90
2019-04-21T17:36:47.256Z,15.50
2019-04-21T17:42:05.274Z,15.30
2019-04-21T17:47:04.872Z,15.00
2019-04-21T17:52:09.794Z,14.70
2019-04-21T17:57:36.853Z,14.40
2019-04-21T18:02:41.400Z,14.30
2019-04-21T18:07:43.598Z,14.10
2019-04-21T18:12:45.092Z,14.00
2019-04-21T18:17:40.488Z,13.90
2019-04-21T18:23:09.606Z,13.80
2019-04-21T18:28:10.350Z,13.60
2019-04-21T18:33:22.202Z,13.40
2019-04-21T18:38:56.964Z,13.30
2019-04-21T18:44:15.551Z,13.10
2019-04-21T18:49:06.251Z,12.90
2019-04-21T18:54:31.358Z,12.70
2019-04-21T18:59:20.177Z,12.60
2019-04-21T19:04:28.719Z,12.40
2019-04-21T19:14:53.340Z,12.10
2019-04-21T19:20:08.968Z,12.00
2019-04-21T19:25:08.473Z,11.90
2019-04-21T19:30:22.399Z,11.70
2019-04-21T19:35:05.502Z,11.60
2019-04-21T19:40:31.386Z,11.50
2019-04-21T19:45:32.162Z,11.40
2019-04-21T19:50:44.910Z,11.30
2019-04-21T19:55:30.274Z,11.20
2019-04-21T20:00:35.186Z,11.10
2019-04-21T20:05:47.628Z,11.00
2019-04-21T20:11:03.916Z,10.90
2019-04-21T20:16:18.093Z,10.80
2019-04-21T20:21:00.024Z,10.60
2019-04-21T20:26:08.562Z,10.40
2019-04-21T20:31:29.639Z,10.20
2019-04-21T20:36:41.573Z,10.10
2019-04-21T20:41:40.864Z,9.90
2019-04-21T20:46:45.891Z,9.80
2019-04-21T20:52:07.994Z,9.70
2019-04-21T20:57:07.467Z,9.70
2019-04-21T21:02:05.667Z,9.50
2019-04-21T21:07:30.680Z,9.30
2019-04-21T21:12:31.780Z,9.20
2019-04-21T21:17:44.240Z,9.20
2019-04-21T21:22:35.209Z,9.10
2019-04-21T21:27:36.747Z,9.10
2019-04-21T21:32:52.318Z,9.00
2019-04-21T21:37:55.321Z,8.90
2019-04-21T21:42:45.694Z,8.70
2019-04-21T21:48:04.444Z,8.70
2019-04-21T21:53:04.520Z,8.70
2019-04-21T21:58:05.832Z,8.50
2019-04-21T22:03:18.781Z,8.50
2019-04-21T22:08:16.474Z,8.40
2019-04-21T22:13:27.055Z,8.30
2019-04-21T22:18:43.294Z,8.10
2019-04-21T22:23:43.720Z,8.00
2019-04-21T22:28:40.668Z,7.90
2019-04-21T22:33:48.405Z,7.70
2019-04-21T22:39:13.392Z,7.60
2019-04-21T22:43:59.342Z,7.50
2019-04-21T22:49:08.782Z,7.40
2019-04-21T22:54:12.750Z,7.30
2019-04-21T22:59:21.051Z,7.20
2019-04-21T23:04:25.422Z,7.10
2019-04-21T23:09:31.048Z,7.10
2019-04-21T23:14:46.784Z,7.00
2019-04-21T23:20:05.729Z,6.90
2019-04-21T23:25:07.547Z,6.90
2019-04-21T23:30:19.790Z,6.80
2019-04-21T23:35:11.444Z,6.70
2019-04-21T23:40:14.841Z,6.60
2019-04-21T23:45:18.288Z,6.60
2019-04-21T23:50:34.151Z,6.40
2019-04-21T23:55:29.312Z,6.40
